sensor_id;sensor_type;location;lat;lon;timestamp;temperature;humidity
39023;DHT22;25908;51.984;5.928;2022-07-22T00:02:24;18.20;96.90
39023;DHT22;25908;51.984;5.928;2022-07-22T00:04:50;18.20;97.00
39023;DHT22;25908;51.984;5.928;2022-07-22T00:07:15;18.20;97.10
39023;DHT22;25908;51.984;5.928;2022-07-22T00:09:41;18.20;97.20
39023;DHT22;25908;51.984;5.928;2022-07-22T00:12:07;18.20;97.20
39023;DHT22;25908;51.984;5.928;2022-07-22T00:14:32;18.20;97.20
39023;DHT22;25908;51.984;5.928;2022-07-22T00:16:58;18.20;97.20
39023;DHT22;25908;51.984;5.928;2022-07-22T00:19:24;18.20;97.20
39023;DHT22;25908;51.984;5.928;2022-07-22T00:21:50;18.20;97.10
39023;DHT22;25908;51.984;5.928;2022-07-22T00:24:16;18.10;97.00
39023;DHT22;25908;51.984;5.928;2022-07-22T00:26:41;18.20;97.00
39023;DHT22;25908;51.984;5.928;2022-07-22T00:29:07;18.20;97.10
39023;DHT22;25908;51.984;5.928;2022-07-22T00:31:33;18.20;97.10
39023;DHT22;25908;51.984;5.928;2022-07-22T00:33:59;18.20;97.10
39023;DHT22;25908;51.984;5.928;2022-07-22T00:36:27;18.20;97.10
39023;DHT22;25908;51.984;5.928;2022-07-22T00:38:52;18.20;96.90
39023;DHT22;25908;51.984;5.928;2022-07-22T00:41:18;18.10;96.90
39023;DHT22;25908;51.984;5.928;2022-07-22T00:43:52;18.10;96.90
39023;DHT22;25908;51.984;5.928;2022-07-22T00:46:18;18.10;96.80
39023;DHT22;25908;51.984;5.928;2022-07-22T00:48:43;18.10;96.80
39023;DHT22;25908;51.984;5.928;2022-07-22T00:51:09;18.00;96.90
39023;DHT22;25908;51.984;5.928;2022-07-22T00:53:35;18.00;97.00
39023;DHT22;25908;51.984;5.928;2022-07-22T00:56:02;18.00;97.10
39023;DHT22;25908;51.984;5.928;2022-07-22T00:58:28;18.10;97.30
39023;DHT22;25908;51.984;5.928;2022-07-22T01:00:54;18.10;97.30
39023;DHT22;25908;51.984;5.928;2022-07-22T01:03:19;18.10;97.30
39023;DHT22;25908;51.984;5.928;2022-07-22T01:05:45;18.10;97.10
39023;DHT22;25908;51.984;5.928;2022-07-22T01:08:11;18.10;96.90
39023;DHT22;25908;51.984;5.928;2022-07-22T01:10:36;18.10;97.00
39023;DHT22;25908;51.984;5.928;2022-07-22T01:13:02;18.10;97.10
39023;DHT22;25908;51.984;5.928;2022-07-22T01:15:27;18.10;97.20
39023;DHT22;25908;51.984;5.928;2022-07-22T01:17:53;18.10;97.20
39023;DHT22;25908;51.984;5.928;2022-07-22T01:20:18;18.10;97.30
39023;DHT22;25908;51.984;5.928;2022-07-22T01:22:44;18.10;97.30
39023;DHT22;25908;51.984;5.928;2022-07-22T01:25:11;18.10;97.30
39023;DHT22;25908;51.984;5.928;2022-07-22T01:27:36;18.00;97.30
39023;DHT22;25908;51.984;5.928;2022-07-22T01:30:04;18.10;97.00
39023;DHT22;25908;51.984;5.928;2022-07-22T01:32:30;18.00;97.00
39023;DHT22;25908;51.984;5.928;2022-07-22T01:34:56;18.00;97.10
39023;DHT22;25908;51.984;5.928;2022-07-22T01:37:21;18.10;97.20
39023;DHT22;25908;51.984;5.928;2022-07-22T01:39:48;18.10;97.10
39023;DHT22;25908;51.984;5.928;2022-07-22T01:42:14;18.10;97.20
39023;DHT22;25908;51.984;5.928;2022-07-22T01:44:39;18.10;97.20
39023;DHT22;25908;51.984;5.928;2022-07-22T01:47:05;18.10;97.10
39023;DHT22;25908;51.984;5.928;2022-07-22T01:49:30;18.10;97.10
39023;DHT22;25908;51.984;5.928;2022-07-22T01:51:56;18.00;96.80
39023;DHT22;25908;51.984;5.928;2022-07-22T01:54:22;18.00;96.80
39023;DHT22;25908;51.984;5.928;2022-07-22T01:56:47;18.00;96.80
39023;DHT22;25908;51.984;5.928;2022-07-22T01:59:13;18.00;96.80
39023;DHT22;25908;51.984;5.928;2022-07-22T02:01:38;18.00;96.80
39023;DHT22;25908;51.984;5.928;2022-07-22T02:04:04;18.00;96.80
39023;DHT22;25908;51.984;5.928;2022-07-22T02:06:29;18.00;96.60
39023;DHT22;25908;51.984;5.928;2022-07-22T02:08:56;18.00;96.80
39023;DHT22;25908;51.984;5.928;2022-07-22T02:11:22;18.00;96.90
39023;DHT22;25908;51.984;5.928;2022-07-22T02:13:47;18.00;96.80
39023;DHT22;25908;51.984;5.928;2022-07-22T02:16:13;18.00;96.80
39023;DHT22;25908;51.984;5.928;2022-07-22T02:18:38;18.00;97.00
39023;DHT22;25908;51.984;5.928;2022-07-22T02:21:04;18.00;96.80
39023;DHT22;25908;51.984;5.928;2022-07-22T02:23:29;18.00;96.60
39023;DHT22;25908;51.984;5.928;2022-07-22T02:25:55;18.00;96.60
39023;DHT22;25908;51.984;5.928;2022-07-22T02:28:21;18.00;96.80
39023;DHT22;25908;51.984;5.928;2022-07-22T02:30:46;18.00;96.90
39023;DHT22;25908;51.984;5.928;2022-07-22T02:33:12;18.00;96.80
39023;DHT22;25908;51.984;5.928;2022-07-22T02:35:37;17.90;96.80
39023;DHT22;25908;51.984;5.928;2022-07-22T02:38:03;17.90;96.80
39023;DHT22;25908;51.984;5.928;2022-07-22T02:40:29;17.90;96.70
39023;DHT22;25908;51.984;5.928;2022-07-22T02:42:55;17.90;96.70
39023;DHT22;25908;51.984;5.928;2022-07-22T02:45:20;17.90;96.80
39023;DHT22;25908;51.984;5.928;2022-07-22T02:47:52;17.90;96.80
39023;DHT22;25908;51.984;5.928;2022-07-22T02:50:18;17.90;96.70
39023;DHT22;25908;51.984;5.928;2022-07-22T02:52:44;17.90;96.80
39023;DHT22;25908;51.984;5.928;2022-07-22T02:55:10;17.90;96.70
39023;DHT22;25908;51.984;5.928;2022-07-22T02:57:35;17.80;96.70
39023;DHT22;25908;51.984;5.928;2022-07-22T03:00:02;17.90;96.80
39023;DHT22;25908;51.984;5.928;2022-07-22T03:02:28;17.80;96.80
39023;DHT22;25908;51.984;5.928;2022-07-22T03:04:53;17.80;96.60
39023;DHT22;25908;51.984;5.928;2022-07-22T03:07:19;17.80;96.70
39023;DHT22;25908;51.984;5.928;2022-07-22T03:09:44;17.80;96.70
39023;DHT22;25908;51.984;5.928;2022-07-22T03:12:10;17.80;96.80
39023;DHT22;25908;51.984;5.928;2022-07-22T03:14:36;17.80;96.70
39023;DHT22;25908;51.984;5.928;2022-07-22T03:17:01;17.80;96.60
39023;DHT22;25908;51.984;5.928;2022-07-22T03:19:27;17.80;96.60
39023;DHT22;25908;51.984;5.928;2022-07-22T03:21:52;17.80;96.70
39023;DHT22;25908;51.984;5.928;2022-07-22T03:24:18;17.80;96.70
39023;DHT22;25908;51.984;5.928;2022-07-22T03:26:43;17.80;96.50
39023;DHT22;25908;51.984;5.928;2022-07-22T03:29:09;17.80;96.60
39023;DHT22;25908;51.984;5.928;2022-07-22T03:31:34;17.80;96.60
39023;DHT22;25908;51.984;5.928;2022-07-22T03:34:00;17.80;96.70
39023;DHT22;25908;51.984;5.928;2022-07-22T03:36:27;17.80;96.70
39023;DHT22;25908;51.984;5.928;2022-07-22T03:38:54;17.80;96.80
39023;DHT22;25908;51.984;5.928;2022-07-22T03:41:20;17.80;96.80
39023;DHT22;25908;51.984;5.928;2022-07-22T03:43:45;17.80;96.70
39023;DHT22;25908;51.984;5.928;2022-07-22T03:46:11;17.80;96.70
39023;DHT22;25908;51.984;5.928;2022-07-22T03:48:36;17.80;96.70
39023;DHT22;25908;51.984;5.928;2022-07-22T03:51:02;17.80;96.80
39023;DHT22;25908;51.984;5.928;2022-07-22T03:53:27;17.80;97.00
39023;DHT22;25908;51.984;5.928;2022-07-22T03:55:53;17.70;96.70
39023;DHT22;25908;51.984;5.928;2022-07-22T03:58:18;17.70;96.70
39023;DHT22;25908;51.984;5.928;2022-07-22T04:00:44;17.80;96.60
39023;DHT22;25908;51.984;5.928;2022-07-22T04:03:10;17.80;96.50
39023;DHT22;25908;51.984;5.928;2022-07-22T04:05:36;17.80;96.40
39023;DHT22;25908;51.984;5.928;2022-07-22T04:08:01;17.70;96.30
39023;DHT22;25908;51.984;5.928;2022-07-22T04:10:27;17.80;96.30
39023;DHT22;25908;51.984;5.928;2022-07-22T04:12:52;17.80;96.40
39023;DHT22;25908;51.984;5.928;2022-07-22T04:15:18;17.80;96.50
39023;DHT22;25908;51.984;5.928;2022-07-22T04:17:43;17.80;96.50
39023;DHT22;25908;51.984;5.928;2022-07-22T04:20:09;17.80;96.50
39023;DHT22;25908;51.984;5.928;2022-07-22T04:22:35;17.80;96.50
39023;DHT22;25908;51.984;5.928;2022-07-22T04:25:00;17.80;96.60
39023;DHT22;25908;51.984;5.928;2022-07-22T04:27:26;17.80;96.60
39023;DHT22;25908;51.984;5.928;2022-07-22T04:29:51;17.70;96.40
39023;DHT22;25908;51.984;5.928;2022-07-22T04:32:17;17.70;96.40
39023;DHT22;25908;51.984;5.928;2022-07-22T04:34:42;17.70;96.30
39023;DHT22;25908;51.984;5.928;2022-07-22T04:37:08;17.70;96.20
39023;DHT22;25908;51.984;5.928;2022-07-22T04:39:34;17.70;96.10
39023;DHT22;25908;51.984;5.928;2022-07-22T04:41:59;17.70;95.90
39023;DHT22;25908;51.984;5.928;2022-07-22T04:44:25;17.70;96.00
39023;DHT22;25908;51.984;5.928;2022-07-22T04:46:50;17.70;96.10
39023;DHT22;25908;51.984;5.928;2022-07-22T04:49:16;17.70;96.10
39023;DHT22;25908;51.984;5.928;2022-07-22T04:51:41;17.70;96.10
39023;DHT22;25908;51.984;5.928;2022-07-22T04:54:07;17.80;96.00
39023;DHT22;25908;51.984;5.928;2022-07-22T04:56:32;17.80;95.70
39023;DHT22;25908;51.984;5.928;2022-07-22T04:58:58;17.80;95.70
39023;DHT22;25908;51.984;5.928;2022-07-22T05:01:23;17.90;95.40
39023;DHT22;25908;51.984;5.928;2022-07-22T05:03:49;17.80;95.10
39023;DHT22;25908;51.984;5.928;2022-07-22T05:06:16;17.80;95.10
39023;DHT22;25908;51.984;5.928;2022-07-22T05:08:41;17.80;95.40
39023;DHT22;25908;51.984;5.928;2022-07-22T05:11:07;17.80;94.80
39023;DHT22;25908;51.984;5.928;2022-07-22T05:13:32;17.80;95.30
39023;DHT22;25908;51.984;5.928;2022-07-22T05:16:03;17.80;96.00
39023;DHT22;25908;51.984;5.928;2022-07-22T05:18:28;18.00;96.00
39023;DHT22;25908;51.984;5.928;2022-07-22T05:20:54;18.10;95.40
39023;DHT22;25908;51.984;5.928;2022-07-22T05:23:19;18.30;95.00
39023;DHT22;25908;51.984;5.928;2022-07-22T05:25:45;18.30;94.60
39023;DHT22;25908;51.984;5.928;2022-07-22T05:28:10;18.30;94.00
39023;DHT22;25908;51.984;5.928;2022-07-22T05:30:36;18.40;94.00
39023;DHT22;25908;51.984;5.928;2022-07-22T05:33:02;18.40;93.90
39023;DHT22;25908;51.984;5.928;2022-07-22T05:35:27;18.50;93.80
39023;DHT22;25908;51.984;5.928;2022-07-22T05:37:53;18.50;93.90
39023;DHT22;25908;51.984;5.928;2022-07-22T05:40:18;18.50;93.90
39023;DHT22;25908;51.984;5.928;2022-07-22T05:42:44;18.60;93.90
39023;DHT22;25908;51.984;5.928;2022-07-22T05:45:10;18.60;93.80
39023;DHT22;25908;51.984;5.928;2022-07-22T05:47:35;18.70;93.70
39023;DHT22;25908;51.984;5.928;2022-07-22T05:50:01;18.70;93.50
39023;DHT22;25908;51.984;5.928;2022-07-22T05:52:26;18.70;93.30
39023;DHT22;25908;51.984;5.928;2022-07-22T05:54:52;18.70;93.20
39023;DHT22;25908;51.984;5.928;2022-07-22T05:57:17;18.70;93.20
39023;DHT22;25908;51.984;5.928;2022-07-22T05:59:43;18.80;93.10
39023;DHT22;25908;51.984;5.928;2022-07-22T06:02:08;18.80;92.90
39023;DHT22;25908;51.984;5.928;2022-07-22T06:04:34;18.80;92.80
39023;DHT22;25908;51.984;5.928;2022-07-22T06:06:59;18.90;92.70
39023;DHT22;25908;51.984;5.928;2022-07-22T06:09:25;18.90;92.60
39023;DHT22;25908;51.984;5.928;2022-07-22T06:11:51;18.90;92.50
39023;DHT22;25908;51.984;5.928;2022-07-22T06:14:16;18.90;92.40
39023;DHT22;25908;51.984;5.928;2022-07-22T06:16:42;18.90;92.30
39023;DHT22;25908;51.984;5.928;2022-07-22T06:19:07;19.00;92.20
39023;DHT22;25908;51.984;5.928;2022-07-22T06:21:33;19.00;92.10
39023;DHT22;25908;51.984;5.928;2022-07-22T06:23:58;19.00;92.00
39023;DHT22;25908;51.984;5.928;2022-07-22T06:26:24;19.00;92.00
39023;DHT22;25908;51.984;5.928;2022-07-22T06:28:50;19.10;91.80
39023;DHT22;25908;51.984;5.928;2022-07-22T06:31:15;19.00;91.60
39023;DHT22;25908;51.984;5.928;2022-07-22T06:33:42;19.00;91.70
39023;DHT22;25908;51.984;5.928;2022-07-22T06:36:07;19.00;92.00
39023;DHT22;25908;51.984;5.928;2022-07-22T06:38:33;19.10;92.00
39023;DHT22;25908;51.984;5.928;2022-07-22T06:40:58;19.10;92.00
39023;DHT22;25908;51.984;5.928;2022-07-22T06:43:24;19.10;92.20
39023;DHT22;25908;51.984;5.928;2022-07-22T06:45:49;19.20;92.10
39023;DHT22;25908;51.984;5.928;2022-07-22T06:48:16;19.20;92.00
39023;DHT22;25908;51.984;5.928;2022-07-22T06:50:41;19.20;91.90
39023;DHT22;25908;51.984;5.928;2022-07-22T06:53:07;19.30;91.80
39023;DHT22;25908;51.984;5.928;2022-07-22T06:55:32;19.30;91.70
39023;DHT22;25908;51.984;5.928;2022-07-22T06:57:58;19.30;91.80
39023;DHT22;25908;51.984;5.928;2022-07-22T07:00:23;19.40;91.80
39023;DHT22;25908;51.984;5.928;2022-07-22T07:02:49;19.30;91.60
39023;DHT22;25908;51.984;5.928;2022-07-22T07:05:15;19.40;91.60
39023;DHT22;25908;51.984;5.928;2022-07-22T07:07:40;19.40;91.50
39023;DHT22;25908;51.984;5.928;2022-07-22T07:10:06;19.40;91.40
39023;DHT22;25908;51.984;5.928;2022-07-22T07:12:32;19.50;91.00
39023;DHT22;25908;51.984;5.928;2022-07-22T07:14:57;19.40;91.00
39023;DHT22;25908;51.984;5.928;2022-07-22T07:17:23;19.40;91.50
39023;DHT22;25908;51.984;5.928;2022-07-22T07:19:49;19.30;91.00
39023;DHT22;25908;51.984;5.928;2022-07-22T07:22:15;19.30;91.00
39023;DHT22;25908;51.984;5.928;2022-07-22T07:24:40;19.30;91.00
39023;DHT22;25908;51.984;5.928;2022-07-22T07:27:06;19.30;90.80
39023;DHT22;25908;51.984;5.928;2022-07-22T07:29:31;19.20;90.30
39023;DHT22;25908;51.984;5.928;2022-07-22T07:31:57;19.20;90.50
39023;DHT22;25908;51.984;5.928;2022-07-22T07:34:22;19.20;90.80
39023;DHT22;25908;51.984;5.928;2022-07-22T07:36:48;19.20;91.00
39023;DHT22;25908;51.984;5.928;2022-07-22T07:39:14;19.20;90.80
39023;DHT22;25908;51.984;5.928;2022-07-22T07:41:39;19.10;90.80
39023;DHT22;25908;51.984;5.928;2022-07-22T07:44:06;19.20;91.40
39023;DHT22;25908;51.984;5.928;2022-07-22T07:46:31;19.20;91.20
39023;DHT22;25908;51.984;5.928;2022-07-22T07:48:57;19.20;91.10
39023;DHT22;25908;51.984;5.928;2022-07-22T07:51:22;19.10;91.40
39023;DHT22;25908;51.984;5.928;2022-07-22T07:53:48;19.10;91.60
39023;DHT22;25908;51.984;5.928;2022-07-22T07:56:14;19.10;91.90
39023;DHT22;25908;51.984;5.928;2022-07-22T07:58:39;19.10;92.10
39023;DHT22;25908;51.984;5.928;2022-07-22T08:01:05;19.10;91.80
39023;DHT22;25908;51.984;5.928;2022-07-22T08:03:32;19.10;91.40
39023;DHT22;25908;51.984;5.928;2022-07-22T08:05:58;19.10;91.20
39023;DHT22;25908;51.984;5.928;2022-07-22T08:08:25;19.10;91.00
39023;DHT22;25908;51.984;5.928;2022-07-22T08:10:50;19.00;91.00
39023;DHT22;25908;51.984;5.928;2022-07-22T08:13:16;19.10;90.90
39023;DHT22;25908;51.984;5.928;2022-07-22T08:15:41;19.10;90.80
39023;DHT22;25908;51.984;5.928;2022-07-22T08:18:07;19.10;91.00
39023;DHT22;25908;51.984;5.928;2022-07-22T08:20:33;19.10;91.40
39023;DHT22;25908;51.984;5.928;2022-07-22T08:22:58;19.20;91.50
39023;DHT22;25908;51.984;5.928;2022-07-22T08:25:24;19.20;91.20
39023;DHT22;25908;51.984;5.928;2022-07-22T08:27:50;19.30;91.20
39023;DHT22;25908;51.984;5.928;2022-07-22T08:30:16;19.40;91.10
39023;DHT22;25908;51.984;5.928;2022-07-22T08:32:42;19.40;90.60
39023;DHT22;25908;51.984;5.928;2022-07-22T08:35:08;19.40;90.60
39023;DHT22;25908;51.984;5.928;2022-07-22T08:37:34;19.50;90.60
39023;DHT22;25908;51.984;5.928;2022-07-22T08:40:00;19.50;90.50
39023;DHT22;25908;51.984;5.928;2022-07-22T08:42:26;19.60;90.40
39023;DHT22;25908;51.984;5.928;2022-07-22T08:44:53;19.70;90.40
39023;DHT22;25908;51.984;5.928;2022-07-22T08:47:22;19.70;90.20
39023;DHT22;25908;51.984;5.928;2022-07-22T08:49:48;19.90;90.20
39023;DHT22;25908;51.984;5.928;2022-07-22T08:52:14;20.10;89.00
39023;DHT22;25908;51.984;5.928;2022-07-22T08:54:40;20.20;88.30
39023;DHT22;25908;51.984;5.928;2022-07-22T08:57:05;20.20;88.40
39023;DHT22;25908;51.984;5.928;2022-07-22T08:59:31;20.30;89.00
39023;DHT22;25908;51.984;5.928;2022-07-22T09:02:08;20.30;87.80
39023;DHT22;25908;51.984;5.928;2022-07-22T09:04:55;20.30;88.30
39023;DHT22;25908;51.984;5.928;2022-07-22T09:07:30;20.40;88.50
39023;DHT22;25908;51.984;5.928;2022-07-22T09:09:57;20.40;88.10
39023;DHT22;25908;51.984;5.928;2022-07-22T09:12:23;20.30;88.70
39023;DHT22;25908;51.984;5.928;2022-07-22T09:14:52;20.30;88.60
39023;DHT22;25908;51.984;5.928;2022-07-22T09:17:31;20.30;88.90
39023;DHT22;25908;51.984;5.928;2022-07-22T09:20:00;20.30;88.80
39023;DHT22;25908;51.984;5.928;2022-07-22T09:22:43;20.20;87.30
39023;DHT22;25908;51.984;5.928;2022-07-22T09:25:19;20.20;88.40
39023;DHT22;25908;51.984;5.928;2022-07-22T09:27:46;20.20;88.40
39023;DHT22;25908;51.984;5.928;2022-07-22T09:30:20;20.20;88.20
39023;DHT22;25908;51.984;5.928;2022-07-22T09:32:47;20.20;87.80
39023;DHT22;25908;51.984;5.928;2022-07-22T09:35:14;20.30;87.40
39023;DHT22;25908;51.984;5.928;2022-07-22T09:37:50;20.40;87.40
39023;DHT22;25908;51.984;5.928;2022-07-22T09:40:19;20.50;87.00
39023;DHT22;25908;51.984;5.928;2022-07-22T09:42:53;20.60;87.80
39023;DHT22;25908;51.984;5.928;2022-07-22T09:45:22;20.70;85.20
39023;DHT22;25908;51.984;5.928;2022-07-22T09:47:49;20.70;84.50
39023;DHT22;25908;51.984;5.928;2022-07-22T09:50:29;20.70;84.80
39023;DHT22;25908;51.984;5.928;2022-07-22T09:52:57;20.70;84.80
39023;DHT22;25908;51.984;5.928;2022-07-22T09:55:24;20.80;84.90
39023;DHT22;25908;51.984;5.928;2022-07-22T09:57:51;20.90;84.10
39023;DHT22;25908;51.984;5.928;2022-07-22T10:00:20;21.00;84.40
39023;DHT22;25908;51.984;5.928;2022-07-22T10:02:49;21.10;83.60
39023;DHT22;25908;51.984;5.928;2022-07-22T10:05:17;21.20;81.30
39023;DHT22;25908;51.984;5.928;2022-07-22T10:07:44;21.30;81.50
39023;DHT22;25908;51.984;5.928;2022-07-22T10:10:13;21.30;81.60
39023;DHT22;25908;51.984;5.928;2022-07-22T10:12:40;21.30;81.00
39023;DHT22;25908;51.984;5.928;2022-07-22T10:15:08;21.40;81.00
39023;DHT22;25908;51.984;5.928;2022-07-22T10:17:36;21.40;81.00
39023;DHT22;25908;51.984;5.928;2022-07-22T10:20:03;21.50;80.70
39023;DHT22;25908;51.984;5.928;2022-07-22T10:25:09;21.60;78.70
39023;DHT22;25908;51.984;5.928;2022-07-22T10:27:57;21.60;79.90
39023;DHT22;25908;51.984;5.928;2022-07-22T10:30:35;21.60;79.40
39023;DHT22;25908;51.984;5.928;2022-07-22T10:33:20;21.70;78.50
39023;DHT22;25908;51.984;5.928;2022-07-22T10:38:21;21.70;76.20
39023;DHT22;25908;51.984;5.928;2022-07-22T10:43:24;21.70;76.50
39023;DHT22;25908;51.984;5.928;2022-07-22T10:45:52;21.80;76.10
39023;DHT22;25908;51.984;5.928;2022-07-22T10:48:25;21.90;76.00
39023;DHT22;25908;51.984;5.928;2022-07-22T10:51:11;22.00;76.30
39023;DHT22;25908;51.984;5.928;2022-07-22T10:56:21;22.10;73.30
39023;DHT22;25908;51.984;5.928;2022-07-22T10:58:53;22.10;74.20
39023;DHT22;25908;51.984;5.928;2022-07-22T11:01:23;22.10;74.70
39023;DHT22;25908;51.984;5.928;2022-07-22T11:03:49;22.10;76.10
39023;DHT22;25908;51.984;5.928;2022-07-22T11:06:27;22.20;75.60
39023;DHT22;25908;51.984;5.928;2022-07-22T11:08:56;22.30;74.80
39023;DHT22;25908;51.984;5.928;2022-07-22T11:11:44;22.40;75.30
39023;DHT22;25908;51.984;5.928;2022-07-22T11:14:26;22.60;75.40
39023;DHT22;25908;51.984;5.928;2022-07-22T11:16:54;22.70;74.30
39023;DHT22;25908;51.984;5.928;2022-07-22T11:19:27;22.70;72.20
39023;DHT22;25908;51.984;5.928;2022-07-22T11:22:02;22.60;72.20
39023;DHT22;25908;51.984;5.928;2022-07-22T11:24:29;22.70;73.50
39023;DHT22;25908;51.984;5.928;2022-07-22T11:26:56;22.70;72.80
39023;DHT22;25908;51.984;5.928;2022-07-22T11:29:27;22.70;72.30
39023;DHT22;25908;51.984;5.928;2022-07-22T11:31:58;22.70;72.80
39023;DHT22;25908;51.984;5.928;2022-07-22T11:34:26;22.80;71.10
39023;DHT22;25908;51.984;5.928;2022-07-22T11:36:52;22.80;71.80
39023;DHT22;25908;51.984;5.928;2022-07-22T11:39:27;22.80;71.50
39023;DHT22;25908;51.984;5.928;2022-07-22T11:41:55;22.80;72.20
39023;DHT22;25908;51.984;5.928;2022-07-22T11:44:23;22.90;72.10
39023;DHT22;25908;51.984;5.928;2022-07-22T11:46:49;23.10;71.60
39023;DHT22;25908;51.984;5.928;2022-07-22T11:49:18;23.10;71.30
39023;DHT22;25908;51.984;5.928;2022-07-22T11:51:44;23.00;68.90
39023;DHT22;25908;51.984;5.928;2022-07-22T11:54:09;22.80;69.80
39023;DHT22;25908;51.984;5.928;2022-07-22T11:56:36;22.70;69.20
39023;DHT22;25908;51.984;5.928;2022-07-22T11:59:02;22.60;70.90
39023;DHT22;25908;51.984;5.928;2022-07-22T12:01:31;22.60;72.10
39023;DHT22;25908;51.984;5.928;2022-07-22T12:04:05;22.60;72.40
39023;DHT22;25908;51.984;5.928;2022-07-22T12:06:33;22.60;72.70
39023;DHT22;25908;51.984;5.928;2022-07-22T12:09:11;22.60;71.30
39023;DHT22;25908;51.984;5.928;2022-07-22T12:11:48;22.60;71.50
39023;DHT22;25908;51.984;5.928;2022-07-22T12:14:19;22.50;70.90
39023;DHT22;25908;51.984;5.928;2022-07-22T12:19:21;22.40;73.20
39023;DHT22;25908;51.984;5.928;2022-07-22T12:21:54;22.40;73.20
39023;DHT22;25908;51.984;5.928;2022-07-22T12:24:31;22.40;73.30
39023;DHT22;25908;51.984;5.928;2022-07-22T12:26:59;22.40;72.60
39023;DHT22;25908;51.984;5.928;2022-07-22T12:29:26;22.50;73.40
39023;DHT22;25908;51.984;5.928;2022-07-22T12:31:59;22.50;73.20
39023;DHT22;25908;51.984;5.928;2022-07-22T12:34:46;22.60;72.40
39023;DHT22;25908;51.984;5.928;2022-07-22T12:37:28;22.80;71.40
39023;DHT22;25908;51.984;5.928;2022-07-22T12:40:04;23.00;71.40
39023;DHT22;25908;51.984;5.928;2022-07-22T12:50:21;23.30;67.30
39023;DHT22;25908;51.984;5.928;2022-07-22T12:52:48;23.30;68.20
39023;DHT22;25908;51.984;5.928;2022-07-22T12:55:14;23.20;68.90
39023;DHT22;25908;51.984;5.928;2022-07-22T12:57:40;23.10;68.60
39023;DHT22;25908;51.984;5.928;2022-07-22T13:00:06;23.00;68.30
39023;DHT22;25908;51.984;5.928;2022-07-22T13:02:32;23.00;69.10
39023;DHT22;25908;51.984;5.928;2022-07-22T13:04:57;23.10;69.00
39023;DHT22;25908;51.984;5.928;2022-07-22T13:07:23;23.10;68.70
39023;DHT22;25908;51.984;5.928;2022-07-22T13:09:48;23.20;68.90
39023;DHT22;25908;51.984;5.928;2022-07-22T13:12:14;23.20;67.80
39023;DHT22;25908;51.984;5.928;2022-07-22T13:14:39;23.20;68.60
39023;DHT22;25908;51.984;5.928;2022-07-22T13:17:05;23.10;68.10
39023;DHT22;25908;51.984;5.928;2022-07-22T13:19:30;23.10;68.00
39023;DHT22;25908;51.984;5.928;2022-07-22T13:21:56;23.00;69.40
39023;DHT22;25908;51.984;5.928;2022-07-22T13:24:21;22.90;67.70
39023;DHT22;25908;51.984;5.928;2022-07-22T13:26:47;22.90;68.10
39023;DHT22;25908;51.984;5.928;2022-07-22T13:29:12;22.90;68.70
39023;DHT22;25908;51.984;5.928;2022-07-22T13:31:38;22.90;69.00
39023;DHT22;25908;51.984;5.928;2022-07-22T13:34:04;22.90;68.60
39023;DHT22;25908;51.984;5.928;2022-07-22T13:36:29;22.90;69.70
39023;DHT22;25908;51.984;5.928;2022-07-22T13:38:58;22.90;70.00
39023;DHT22;25908;51.984;5.928;2022-07-22T13:41:23;23.00;69.70
39023;DHT22;25908;51.984;5.928;2022-07-22T13:43:49;23.00;68.30
39023;DHT22;25908;51.984;5.928;2022-07-22T13:46:16;23.00;67.80
39023;DHT22;25908;51.984;5.928;2022-07-22T13:48:42;22.90;68.90
39023;DHT22;25908;51.984;5.928;2022-07-22T13:51:07;23.00;69.90
39023;DHT22;25908;51.984;5.928;2022-07-22T13:53:33;23.00;69.80
39023;DHT22;25908;51.984;5.928;2022-07-22T13:55:59;23.10;68.40
39023;DHT22;25908;51.984;5.928;2022-07-22T13:58:24;23.10;67.00
39023;DHT22;25908;51.984;5.928;2022-07-22T14:00:50;23.10;67.80
39023;DHT22;25908;51.984;5.928;2022-07-22T14:03:15;23.10;68.20
39023;DHT22;25908;51.984;5.928;2022-07-22T14:05:41;23.10;68.80
39023;DHT22;25908;51.984;5.928;2022-07-22T14:08:07;23.00;70.40
39023;DHT22;25908;51.984;5.928;2022-07-22T14:10:32;22.90;71.00
39023;DHT22;25908;51.984;5.928;2022-07-22T14:12:58;22.90;71.40
39023;DHT22;25908;51.984;5.928;2022-07-22T14:15:23;22.90;71.10
39023;DHT22;25908;51.984;5.928;2022-07-22T14:17:49;22.90;71.20
39023;DHT22;25908;51.984;5.928;2022-07-22T14:20:14;22.90;71.10
39023;DHT22;25908;51.984;5.928;2022-07-22T14:22:40;22.80;71.30
39023;DHT22;25908;51.984;5.928;2022-07-22T14:25:05;22.80;71.70
39023;DHT22;25908;51.984;5.928;2022-07-22T14:27:31;22.90;71.60
39023;DHT22;25908;51.984;5.928;2022-07-22T14:29:56;22.90;71.50
39023;DHT22;25908;51.984;5.928;2022-07-22T14:32:22;22.90;70.90
39023;DHT22;25908;51.984;5.928;2022-07-22T14:34:47;22.90;71.60
39023;DHT22;25908;51.984;5.928;2022-07-22T14:37:14;22.80;72.00
39023;DHT22;25908;51.984;5.928;2022-07-22T14:39:39;22.90;72.50
39023;DHT22;25908;51.984;5.928;2022-07-22T14:42:05;22.90;72.60
39023;DHT22;25908;51.984;5.928;2022-07-22T14:44:32;23.00;71.80
39023;DHT22;25908;51.984;5.928;2022-07-22T14:46:57;23.00;71.50
39023;DHT22;25908;51.984;5.928;2022-07-22T14:49:23;23.00;71.10
39023;DHT22;25908;51.984;5.928;2022-07-22T14:51:48;23.10;70.90
39023;DHT22;25908;51.984;5.928;2022-07-22T14:54:14;23.00;71.70
39023;DHT22;25908;51.984;5.928;2022-07-22T14:56:40;23.00;72.00
39023;DHT22;25908;51.984;5.928;2022-07-22T14:59:06;23.10;71.40
39023;DHT22;25908;51.984;5.928;2022-07-22T15:01:32;23.10;71.60
39023;DHT22;25908;51.984;5.928;2022-07-22T15:03:57;23.00;71.70
39023;DHT22;25908;51.984;5.928;2022-07-22T15:06:23;23.10;72.20
39023;DHT22;25908;51.984;5.928;2022-07-22T15:08:48;23.10;72.40
39023;DHT22;25908;51.984;5.928;2022-07-22T15:11:14;23.10;71.00
39023;DHT22;25908;51.984;5.928;2022-07-22T15:13:40;23.10;71.80
39023;DHT22;25908;51.984;5.928;2022-07-22T15:16:05;23.10;71.20
39023;DHT22;25908;51.984;5.928;2022-07-22T15:18:31;23.10;71.50
39023;DHT22;25908;51.984;5.928;2022-07-22T15:20:56;23.10;70.80
39023;DHT22;25908;51.984;5.928;2022-07-22T15:23:25;23.00;70.80
39023;DHT22;25908;51.984;5.928;2022-07-22T15:25:58;22.90;70.90
39023;DHT22;25908;51.984;5.928;2022-07-22T15:28:24;22.90;71.20
39023;DHT22;25908;51.984;5.928;2022-07-22T15:30:50;22.90;71.70
39023;DHT22;25908;51.984;5.928;2022-07-22T15:33:16;22.90;71.60
39023;DHT22;25908;51.984;5.928;2022-07-22T15:35:41;22.80;71.30
39023;DHT22;25908;51.984;5.928;2022-07-22T15:38:07;22.80;71.60
39023;DHT22;25908;51.984;5.928;2022-07-22T15:40:32;22.80;71.30
39023;DHT22;25908;51.984;5.928;2022-07-22T15:42:58;22.80;71.00
39023;DHT22;25908;51.984;5.928;2022-07-22T15:45:23;22.70;71.20
39023;DHT22;25908;51.984;5.928;2022-07-22T15:47:49;22.70;71.00
39023;DHT22;25908;51.984;5.928;2022-07-22T15:50:15;22.70;71.00